sensor_id;sensor_type;location;lat;lon;timestamp;temperature;humidity
12115;DHT22;6121;49.810;6.418;2022-12-28T00:01:47;6.00;99.90
12115;DHT22;6121;49.810;6.418;2022-12-28T00:04:13;6.10;99.90
12115;DHT22;6121;49.810;6.418;2022-12-28T00:06:39;6.10;99.90
12115;DHT22;6121;49.810;6.418;2022-12-28T00:09:05;6.00;99.90
12115;DHT22;6121;49.810;6.418;2022-12-28T00:11:31;6.10;99.90
12115;DHT22;6121;49.810;6.418;2022-12-28T00:13:58;6.10;99.90
12115;DHT22;6121;49.810;6.418;2022-12-28T00:16:33;6.00;99.90
12115;DHT22;6121;49.810;6.418;2022-12-28T00:19:02;5.90;99.90
12115;DHT22;6121;49.810;6.418;2022-12-28T00:21:28;6.00;99.90
12115;DHT22;6121;49.810;6.418;2022-12-28T00:23:56;5.90;99.90
12115;DHT22;6121;49.810;6.418;2022-12-28T00:26:22;5.90;99.90
12115;DHT22;6121;49.810;6.418;2022-12-28T00:28:48;6.00;99.90
12115;DHT22;6121;49.810;6.418;2022-12-28T00:31:14;6.10;99.90
12115;DHT22;6121;49.810;6.418;2022-12-28T00:33:40;6.00;99.90
12115;DHT22;6121;49.810;6.418;2022-12-28T00:36:06;6.00;99.90
12115;DHT22;6121;49.810;6.418;2022-12-28T00:38:34;6.00;99.90
12115;DHT22;6121;49.810;6.418;2022-12-28T00:40:59;6.00;99.90
12115;DHT22;6121;49.810;6.418;2022-12-28T00:43:26;6.10;99.90
12115;DHT22;6121;49.810;6.418;2022-12-28T00:45:51;6.00;99.90
12115;DHT22;6121;49.810;6.418;2022-12-28T00:48:17;6.10;99.90
12115;DHT22;6121;49.810;6.418;2022-12-28T00:50:43;6.10;99.90
12115;DHT22;6121;49.810;6.418;2022-12-28T00:53:09;6.10;99.90
12115;DHT22;6121;49.810;6.418;2022-12-28T00:55:36;6.20;99.90
12115;DHT22;6121;49.810;6.418;2022-12-28T00:58:02;6.10;99.90
12115;DHT22;6121;49.810;6.418;2022-12-28T01:00:29;6.10;99.90
12115;DHT22;6121;49.810;6.418;2022-12-28T01:02:55;6.00;99.90
12115;DHT22;6121;49.810;6.418;2022-12-28T01:05:22;6.00;99.90
12115;DHT22;6121;49.810;6.418;2022-12-28T01:07:48;6.10;99.90
12115;DHT22;6121;49.810;6.418;2022-12-28T01:10:13;6.10;99.90
12115;DHT22;6121;49.810;6.418;2022-12-28T01:12:39;6.20;99.90
12115;DHT22;6121;49.810;6.418;2022-12-28T01:15:07;6.10;99.90
12115;DHT22;6121;49.810;6.418;2022-12-28T01:17:32;6.10;99.90
12115;DHT22;6121;49.810;6.418;2022-12-28T01:19:58;6.10;99.90
12115;DHT22;6121;49.810;6.418;2022-12-28T01:22:25;6.10;99.90
12115;DHT22;6121;49.810;6.418;2022-12-28T01:24:50;6.20;99.90
12115;DHT22;6121;49.810;6.418;2022-12-28T01:27:16;6.20;99.90
12115;DHT22;6121;49.810;6.418;2022-12-28T01:29:42;6.20;99.90
12115;DHT22;6121;49.810;6.418;2022-12-28T01:32:07;6.30;99.90
12115;DHT22;6121;49.810;6.418;2022-12-28T01:34:33;6.30;99.90
12115;DHT22;6121;49.810;6.418;2022-12-28T01:36:58;6.40;99.90
12115;DHT22;6121;49.810;6.418;2022-12-28T01:39:24;6.40;99.90
12115;DHT22;6121;49.810;6.418;2022-12-28T01:41:49;6.30;99.90
12115;DHT22;6121;49.810;6.418;2022-12-28T01:46:44;6.30;99.90
12115;DHT22;6121;49.810;6.418;2022-12-28T01:51:59;6.40;99.90
12115;DHT22;6121;49.810;6.418;2022-12-28T01:54:29;6.40;99.90
12115;DHT22;6121;49.810;6.418;2022-12-28T01:56:57;6.30;99.90
12115;DHT22;6121;49.810;6.418;2022-12-28T01:59:25;6.40;99.90
12115;DHT22;6121;49.810;6.418;2022-12-28T02:01:52;6.60;99.90
12115;DHT22;6121;49.810;6.418;2022-12-28T02:04:18;6.50;99.90
12115;DHT22;6121;49.810;6.418;2022-12-28T02:06:44;6.50;99.90
12115;DHT22;6121;49.810;6.418;2022-12-28T02:11:40;6.50;99.90
12115;DHT22;6121;49.810;6.418;2022-12-28T02:14:06;6.50;99.90
12115;DHT22;6121;49.810;6.418;2022-12-28T02:16:32;6.60;99.90
12115;DHT22;6121;49.810;6.418;2022-12-28T02:18:58;6.60;99.90
12115;DHT22;6121;49.810;6.418;2022-12-28T02:21:36;6.50;99.90
12115;DHT22;6121;49.810;6.418;2022-12-28T02:26:55;6.60;99.90
12115;DHT22;6121;49.810;6.418;2022-12-28T02:29:47;6.70;99.90
12115;DHT22;6121;49.810;6.418;2022-12-28T02:32:28;6.70;99.90
12115;DHT22;6121;49.810;6.418;2022-12-28T02:35:01;6.70;99.90
12115;DHT22;6121;49.810;6.418;2022-12-28T02:37:33;6.80;99.90
12115;DHT22;6121;49.810;6.418;2022-12-28T02:40:33;6.80;99.90
12115;DHT22;6121;49.810;6.418;2022-12-28T02:43:02;6.70;99.90
12115;DHT22;6121;49.810;6.418;2022-12-28T02:48:17;6.80;99.90
12115;DHT22;6121;49.810;6.418;2022-12-28T02:56:44;6.80;99.90
12115;DHT22;6121;49.810;6.418;2022-12-28T02:59:21;6.90;99.90
12115;DHT22;6121;49.810;6.418;2022-12-28T03:02:13;7.10;99.90
12115;DHT22;6121;49.810;6.418;2022-12-28T03:05:04;7.10;99.90
12115;DHT22;6121;49.810;6.418;2022-12-28T03:07:54;7.10;99.90
12115;DHT22;6121;49.810;6.418;2022-12-28T03:10:51;7.20;99.90
12115;DHT22;6121;49.810;6.418;2022-12-28T03:13:29;7.10;99.90
12115;DHT22;6121;49.810;6.418;2022-12-28T03:18:40;7.00;99.90
12115;DHT22;6121;49.810;6.418;2022-12-28T03:21:29;7.20;99.90
12115;DHT22;6121;49.810;6.418;2022-12-28T03:24:15;7.10;99.90
12115;DHT22;6121;49.810;6.418;2022-12-28T03:27:04;7.10;99.90
12115;DHT22;6121;49.810;6.418;2022-12-28T03:30:06;7.30;99.90
12115;DHT22;6121;49.810;6.418;2022-12-28T03:32:51;7.30;99.90
12115;DHT22;6121;49.810;6.418;2022-12-28T03:35:19;7.40;99.90
12115;DHT22;6121;49.810;6.418;2022-12-28T03:37:56;7.40;99.90
12115;DHT22;6121;49.810;6.418;2022-12-28T03:40:56;7.40;99.90
12115;DHT22;6121;49.810;6.418;2022-12-28T03:43:29;7.50;99.90
12115;DHT22;6121;49.810;6.418;2022-12-28T03:46:23;7.40;99.90
12115;DHT22;6121;49.810;6.418;2022-12-28T03:48:54;7.50;99.90
12115;DHT22;6121;49.810;6.418;2022-12-28T03:51:23;7.40;99.90
12115;DHT22;6121;49.810;6.418;2022-12-28T03:53:50;7.40;99.90
12115;DHT22;6121;49.810;6.418;2022-12-28T03:56:19;7.60;99.90
12115;DHT22;6121;49.810;6.418;2022-12-28T03:58:45;7.40;99.90
12115;DHT22;6121;49.810;6.418;2022-12-28T04:01:11;7.30;99.90
12115;DHT22;6121;49.810;6.418;2022-12-28T04:03:37;7.40;99.90
12115;DHT22;6121;49.810;6.418;2022-12-28T04:06:03;7.50;99.90
12115;DHT22;6121;49.810;6.418;2022-12-28T04:08:30;7.60;99.90
12115;DHT22;6121;49.810;6.418;2022-12-28T04:10:58;7.50;99.90
12115;DHT22;6121;49.810;6.418;2022-12-28T04:13:24;7.50;99.90
12115;DHT22;6121;49.810;6.418;2022-12-28T04:16:01;7.60;99.90
12115;DHT22;6121;49.810;6.418;2022-12-28T04:18:28;7.60;99.90
12115;DHT22;6121;49.810;6.418;2022-12-28T04:20:54;7.60;99.90
12115;DHT22;6121;49.810;6.418;2022-12-28T04:23:20;7.50;99.90
12115;DHT22;6121;49.810;6.418;2022-12-28T04:26:08;7.60;99.90
12115;DHT22;6121;49.810;6.418;2022-12-28T04:28:35;7.60;99.90
12115;DHT22;6121;49.810;6.418;2022-12-28T04:31:01;7.60;99.90
12115;DHT22;6121;49.810;6.418;2022-12-28T04:33:27;7.60;99.90
12115;DHT22;6121;49.810;6.418;2022-12-28T04:36:04;7.60;99.90
12115;DHT22;6121;49.810;6.418;2022-12-28T04:38:30;7.60;99.90
12115;DHT22;6121;49.810;6.418;2022-12-28T04:40:55;7.70;99.90
12115;DHT22;6121;49.810;6.418;2022-12-28T04:43:21;7.80;99.90
12115;DHT22;6121;49.810;6.418;2022-12-28T04:45:55;7.80;99.90
12115;DHT22;6121;49.810;6.418;2022-12-28T04:48:21;7.80;99.90
12115;DHT22;6121;49.810;6.418;2022-12-28T04:50:46;7.70;99.90
12115;DHT22;6121;49.810;6.418;2022-12-28T04:53:12;7.70;99.90
12115;DHT22;6121;49.810;6.418;2022-12-28T04:55:37;7.70;99.90
12115;DHT22;6121;49.810;6.418;2022-12-28T04:58:03;7.80;99.90
12115;DHT22;6121;49.810;6.418;2022-12-28T05:00:29;7.90;99.90
12115;DHT22;6121;49.810;6.418;2022-12-28T05:02:58;7.90;99.90
12115;DHT22;6121;49.810;6.418;2022-12-28T05:05:23;8.00;99.90
12115;DHT22;6121;49.810;6.418;2022-12-28T05:07:49;8.00;99.90
12115;DHT22;6121;49.810;6.418;2022-12-28T05:10:15;8.10;99.90
12115;DHT22;6121;49.810;6.418;2022-12-28T05:12:40;8.00;99.90
12115;DHT22;6121;49.810;6.418;2022-12-28T05:15:06;8.10;99.90
12115;DHT22;6121;49.810;6.418;2022-12-28T05:17:32;8.10;99.90
12115;DHT22;6121;49.810;6.418;2022-12-28T05:19:57;8.10;99.90
12115;DHT22;6121;49.810;6.418;2022-12-28T05:22:23;8.20;99.90
12115;DHT22;6121;49.810;6.418;2022-12-28T05:24:49;8.20;99.90
12115;DHT22;6121;49.810;6.418;2022-12-28T05:27:14;8.30;99.90
12115;DHT22;6121;49.810;6.418;2022-12-28T05:29:40;8.40;99.90
12115;DHT22;6121;49.810;6.418;2022-12-28T05:32:05;8.40;99.90
12115;DHT22;6121;49.810;6.418;2022-12-28T05:34:31;8.50;99.90
12115;DHT22;6121;49.810;6.418;2022-12-28T05:36:56;8.50;99.90
12115;DHT22;6121;49.810;6.418;2022-12-28T05:39:22;8.50;99.90
12115;DHT22;6121;49.810;6.418;2022-12-28T05:41:48;8.50;99.90
12115;DHT22;6121;49.810;6.418;2022-12-28T05:44:14;8.50;99.90
12115;DHT22;6121;49.810;6.418;2022-12-28T05:46:39;8.50;99.90
12115;DHT22;6121;49.810;6.418;2022-12-28T05:49:07;8.50;99.90
12115;DHT22;6121;49.810;6.418;2022-12-28T05:51:33;8.50;99.90
12115;DHT22;6121;49.810;6.418;2022-12-28T05:54:00;8.50;99.90
12115;DHT22;6121;49.810;6.418;2022-12-28T05:56:29;8.50;99.90
12115;DHT22;6121;49.810;6.418;2022-12-28T05:58:59;8.50;99.90
12115;DHT22;6121;49.810;6.418;2022-12-28T06:01:28;8.40;99.90
12115;DHT22;6121;49.810;6.418;2022-12-28T06:04:00;8.50;99.90
12115;DHT22;6121;49.810;6.418;2022-12-28T06:06:26;8.60;99.90
12115;DHT22;6121;49.810;6.418;2022-12-28T06:08:52;8.50;99.90
12115;DHT22;6121;49.810;6.418;2022-12-28T06:11:23;8.50;99.90
12115;DHT22;6121;49.810;6.418;2022-12-28T06:13:50;8.50;99.90
12115;DHT22;6121;49.810;6.418;2022-12-28T06:16:21;8.70;99.90
12115;DHT22;6121;49.810;6.418;2022-12-28T06:18:47;8.70;99.90
12115;DHT22;6121;49.810;6.418;2022-12-28T06:21:19;8.60;99.90
12115;DHT22;6121;49.810;6.418;2022-12-28T06:23:46;8.60;99.90
12115;DHT22;6121;49.810;6.418;2022-12-28T06:26:13;8.60;99.90
12115;DHT22;6121;49.810;6.418;2022-12-28T06:28:40;8.60;99.90
12115;DHT22;6121;49.810;6.418;2022-12-28T06:31:12;8.50;99.90
12115;DHT22;6121;49.810;6.418;2022-12-28T06:33:38;8.50;99.90
12115;DHT22;6121;49.810;6.418;2022-12-28T06:36:09;8.60;99.90
12115;DHT22;6121;49.810;6.418;2022-12-28T06:38:35;8.70;99.90
12115;DHT22;6121;49.810;6.418;2022-12-28T06:41:05;8.70;99.90
12115;DHT22;6121;49.810;6.418;2022-12-28T06:43:32;8.60;99.90
12115;DHT22;6121;49.810;6.418;2022-12-28T06:45:59;8.60;99.90
12115;DHT22;6121;49.810;6.418;2022-12-28T06:48:25;8.60;99.90
12115;DHT22;6121;49.810;6.418;2022-12-28T06:50:58;8.70;99.90
12115;DHT22;6121;49.810;6.418;2022-12-28T06:53:27;8.70;99.90
12115;DHT22;6121;49.810;6.418;2022-12-28T06:55:54;8.60;99.90
12115;DHT22;6121;49.810;6.418;2022-12-28T06:58:21;8.60;99.90
12115;DHT22;6121;49.810;6.418;2022-12-28T07:00:47;8.60;99.90
12115;DHT22;6121;49.810;6.418;2022-12-28T07:03:13;8.60;99.90
12115;DHT22;6121;49.810;6.418;2022-12-28T07:05:38;8.70;99.90
12115;DHT22;6121;49.810;6.418;2022-12-28T07:08:04;8.70;99.90
12115;DHT22;6121;49.810;6.418;2022-12-28T07:10:30;8.80;99.90
12115;DHT22;6121;49.810;6.418;2022-12-28T07:12:56;8.70;99.90
12115;DHT22;6121;49.810;6.418;2022-12-28T07:15:22;8.80;99.90
12115;DHT22;6121;49.810;6.418;2022-12-28T07:17:47;8.70;99.90
12115;DHT22;6121;49.810;6.418;2022-12-28T07:20:13;8.60;99.90
12115;DHT22;6121;49.810;6.418;2022-12-28T07:22:39;8.70;99.90
12115;DHT22;6121;49.810;6.418;2022-12-28T07:25:05;8.60;99.90
12115;DHT22;6121;49.810;6.418;2022-12-28T07:27:30;8.70;99.90
12115;DHT22;6121;49.810;6.418;2022-12-28T07:29:56;8.60;99.90
12115;DHT22;6121;49.810;6.418;2022-12-28T07:32:21;8.60;99.90
12115;DHT22;6121;49.810;6.418;2022-12-28T07:34:47;8.70;99.90
12115;DHT22;6121;49.810;6.418;2022-12-28T07:37:13;8.80;99.90
12115;DHT22;6121;49.810;6.418;2022-12-28T07:39:38;8.90;99.90
12115;DHT22;6121;49.810;6.418;2022-12-28T07:42:04;8.90;99.90
12115;DHT22;6121;49.810;6.418;2022-12-28T07:44:32;8.90;99.90
12115;DHT22;6121;49.810;6.418;2022-12-28T07:46:58;8.90;99.90
12115;DHT22;6121;49.810;6.418;2022-12-28T07:49:23;8.80;99.90
12115;DHT22;6121;49.810;6.418;2022-12-28T07:51:49;8.70;99.90
12115;DHT22;6121;49.810;6.418;2022-12-28T07:54:14;8.70;99.90
12115;DHT22;6121;49.810;6.418;2022-12-28T07:56:40;8.70;99.90
12115;DHT22;6121;49.810;6.418;2022-12-28T07:59:06;8.80;99.90
12115;DHT22;6121;49.810;6.418;2022-12-28T08:01:34;8.90;99.90
12115;DHT22;6121;49.810;6.418;2022-12-28T08:04:02;8.80;99.90
12115;DHT22;6121;49.810;6.418;2022-12-28T08:06:29;8.80;99.90
12115;DHT22;6121;49.810;6.418;2022-12-28T08:08:59;8.70;99.90
12115;DHT22;6121;49.810;6.418;2022-12-28T08:11:27;8.80;99.90
12115;DHT22;6121;49.810;6.418;2022-12-28T08:13:54;8.80;99.90
12115;DHT22;6121;49.810;6.418;2022-12-28T08:16:21;8.80;99.90
12115;DHT22;6121;49.810;6.418;2022-12-28T08:18:48;8.80;99.90
12115;DHT22;6121;49.810;6.418;2022-12-28T08:21:16;9.00;99.90
12115;DHT22;6121;49.810;6.418;2022-12-28T08:23:42;9.00;99.90
12115;DHT22;6121;49.810;6.418;2022-12-28T08:26:11;8.80;99.90
12115;DHT22;6121;49.810;6.418;2022-12-28T08:28:38;8.80;99.90
12115;DHT22;6121;49.810;6.418;2022-12-28T08:31:06;8.90;99.90
12115;DHT22;6121;49.810;6.418;2022-12-28T08:33:31;8.80;99.90
12115;DHT22;6121;49.810;6.418;2022-12-28T08:35:57;8.90;99.90
12115;DHT22;6121;49.810;6.418;2022-12-28T08:38:22;8.90;99.90
12115;DHT22;6121;49.810;6.418;2022-12-28T08:40:59;9.00;99.90
12115;DHT22;6121;49.810;6.418;2022-12-28T08:43:26;9.00;99.90
12115;DHT22;6121;49.810;6.418;2022-12-28T08:46:13;9.10;99.90
12115;DHT22;6121;49.810;6.418;2022-12-28T08:48:39;9.00;99.90
12115;DHT22;6121;49.810;6.418;2022-12-28T08:51:08;8.90;99.90
12115;DHT22;6121;49.810;6.418;2022-12-28T08:53:34;8.90;99.90
12115;DHT22;6121;49.810;6.418;2022-12-28T08:58:29;9.00;99.90
12115;DHT22;6121;49.810;6.418;2022-12-28T09:00:55;9.10;99.90
12115;DHT22;6121;49.810;6.418;2022-12-28T09:03:21;9.00;99.90
12115;DHT22;6121;49.810;6.418;2022-12-28T09:05:46;9.00;99.90
12115;DHT22;6121;49.810;6.418;2022-12-28T09:08:12;9.00;99.90
12115;DHT22;6121;49.810;6.418;2022-12-28T09:10:37;9.00;99.90
12115;DHT22;6121;49.810;6.418;2022-12-28T09:13:03;9.00;99.90
12115;DHT22;6121;49.810;6.418;2022-12-28T09:15:28;9.10;99.90
12115;DHT22;6121;49.810;6.418;2022-12-28T09:17:54;9.20;99.90
12115;DHT22;6121;49.810;6.418;2022-12-28T09:20:20;9.20;99.90
12115;DHT22;6121;49.810;6.418;2022-12-28T09:22:45;9.30;99.90
12115;DHT22;6121;49.810;6.418;2022-12-28T09:25:11;9.20;99.90
12115;DHT22;6121;49.810;6.418;2022-12-28T09:27:37;9.10;99.90
12115;DHT22;6121;49.810;6.418;2022-12-28T09:30:02;9.10;99.90
12115;DHT22;6121;49.810;6.418;2022-12-28T09:32:28;9.10;99.90
12115;DHT22;6121;49.810;6.418;2022-12-28T09:34:54;9.20;99.90
12115;DHT22;6121;49.810;6.418;2022-12-28T09:37:19;9.30;99.90
12115;DHT22;6121;49.810;6.418;2022-12-28T09:39:45;9.30;99.90
12115;DHT22;6121;49.810;6.418;2022-12-28T09:42:18;9.30;99.90
12115;DHT22;6121;49.810;6.418;2022-12-28T09:47:35;9.30;99.90
12115;DHT22;6121;49.810;6.418;2022-12-28T09:50:10;9.40;99.90
12115;DHT22;6121;49.810;6.418;2022-12-28T09:55:23;9.60;99.90
12115;DHT22;6121;49.810;6.418;2022-12-28T09:57:53;9.80;99.90
12115;DHT22;6121;49.810;6.418;2022-12-28T10:00:22;9.70;99.90
12115;DHT22;6121;49.810;6.418;2022-12-28T10:02:54;9.80;99.90
12115;DHT22;6121;49.810;6.418;2022-12-28T10:05:21;9.90;99.90
12115;DHT22;6121;49.810;6.418;2022-12-28T10:07:47;9.80;99.90
12115;DHT22;6121;49.810;6.418;2022-12-28T10:10:16;9.80;99.90
12115;DHT22;6121;49.810;6.418;2022-12-28T10:12:43;9.90;99.90
12115;DHT22;6121;49.810;6.418;2022-12-28T10:15:13;10.00;99.90
12115;DHT22;6121;49.810;6.418;2022-12-28T10:17:40;10.10;99.90
12115;DHT22;6121;49.810;6.418;2022-12-28T10:20:14;10.30;99.90
12115;DHT22;6121;49.810;6.418;2022-12-28T10:22:40;10.40;99.90
12115;DHT22;6121;49.810;6.418;2022-12-28T10:25:19;10.60;99.90
12115;DHT22;6121;49.810;6.418;2022-12-28T10:27:45;10.70;99.90
12115;DHT22;6121;49.810;6.418;2022-12-28T10:30:29;10.50;99.90
12115;DHT22;6121;49.810;6.418;2022-12-28T10:32:58;10.30;99.90
12115;DHT22;6121;49.810;6.418;2022-12-28T10:35:49;10.50;99.90
12115;DHT22;6121;49.810;6.418;2022-12-28T10:38:26;10.70;99.90
12115;DHT22;6121;49.810;6.418;2022-12-28T10:43:33;10.40;99.90
12115;DHT22;6121;49.810;6.418;2022-12-28T10:46:01;10.30;99.90
12115;DHT22;6121;49.810;6.418;2022-12-28T10:48:35;10.20;99.90
12115;DHT22;6121;49.810;6.418;2022-12-28T10:51:10;9.90;99.90
12115;DHT22;6121;49.810;6.418;2022-12-28T10:53:48;9.80;99.90
12115;DHT22;6121;49.810;6.418;2022-12-28T10:56:26;9.90;99.90
12115;DHT22;6121;49.810;6.418;2022-12-28T11:01:34;10.00;99.90
12115;DHT22;6121;49.810;6.418;2022-12-28T11:04:05;10.00;99.90
12115;DHT22;6121;49.810;6.418;2022-12-28T11:06:35;10.00;99.90
12115;DHT22;6121;49.810;6.418;2022-12-28T11:09:18;10.00;99.90
12115;DHT22;6121;49.810;6.418;2022-12-28T11:11:46;9.90;99.90
12115;DHT22;6121;49.810;6.418;2022-12-28T11:14:41;10.00;99.90
12115;DHT22;6121;49.810;6.418;2022-12-28T11:17:25;10.00;99.90
12115;DHT22;6121;49.810;6.418;2022-12-28T11:20:05;9.90;99.90
12115;DHT22;6121;49.810;6.418;2022-12-28T11:22:32;9.90;99.90
12115;DHT22;6121;49.810;6.418;2022-12-28T11:24:59;9.90;99.90
12115;DHT22;6121;49.810;6.418;2022-12-28T11:27:26;9.90;99.90
12115;DHT22;6121;49.810;6.418;2022-12-28T11:29:53;10.00;99.90
12115;DHT22;6121;49.810;6.418;2022-12-28T11:32:37;10.00;99.90
12115;DHT22;6121;49.810;6.418;2022-12-28T11:35:04;10.00;99.90
12115;DHT22;6121;49.810;6.418;2022-12-28T11:37:30;9.90;99.90
12115;DHT22;6121;49.810;6.418;2022-12-28T11:39:56;9.90;99.90
12115;DHT22;6121;49.810;6.418;2022-12-28T11:45:04;9.90;99.90
12115;DHT22;6121;49.810;6.418;2022-12-28T11:47:31;9.90;99.90
12115;DHT22;6121;49.810;6.418;2022-12-28T11:53:03;9.90;99.90
12115;DHT22;6121;49.810;6.418;2022-12-28T11:55:45;9.90;99.90
12115;DHT22;6121;49.810;6.418;2022-12-28T12:00:55;10.00;99.90
12115;DHT22;6121;49.810;6.418;2022-12-28T12:11:59;10.10;99.90
12115;DHT22;6121;49.810;6.418;2022-12-28T12:14:30;10.20;99.90
12115;DHT22;6121;49.810;6.418;2022-12-28T12:17:06;10.10;99.90
12115;DHT22;6121;49.810;6.418;2022-12-28T12:19:38;10.00;99.90
12115;DHT22;6121;49.810;6.418;2022-12-28T12:22:21;10.00;99.90
12115;DHT22;6121;49.810;6.418;2022-12-28T12:29:59;10.10;99.90
12115;DHT22;6121;49.810;6.418;2022-12-28T12:32:48;10.10;99.90
12115;DHT22;6121;49.810;6.418;2022-12-28T12:35:19;10.20;99.90
12115;DHT22;6121;49.810;6.418;2022-12-28T12:40:47;10.20;99.90
12115;DHT22;6121;49.810;6.418;2022-12-28T12:43:31;10.10;99.90
12115;DHT22;6121;49.810;6.418;2022-12-28T12:47:01;10.10;99.90
12115;DHT22;6121;49.810;6.418;2022-12-28T12:55:08;10.10;99.90
12115;DHT22;6121;49.810;6.418;2022-12-28T12:58:04;10.20;99.90
12115;DHT22;6121;49.810;6.418;2022-12-28T13:00:51;10.10;99.90
12115;DHT22;6121;49.810;6.418;2022-12-28T13:03:52;10.20;99.90
12115;DHT22;6121;49.810;6.418;2022-12-28T13:06:23;10.20;99.90
12115;DHT22;6121;49.810;6.418;2022-12-28T13:08:59;10.30;99.90
12115;DHT22;6121;49.810;6.418;2022-12-28T13:11:28;10.30;99.90
12115;DHT22;6121;49.810;6.418;2022-12-28T13:13:54;10.20;99.90
12115;DHT22;6121;49.810;6.418;2022-12-28T13:16:24;10.20;99.90
12115;DHT22;6121;49.810;6.418;2022-12-28T13:19:03;10.40;99.90
12115;DHT22;6121;49.810;6.418;2022-12-28T13:21:40;10.40;99.90
12115;DHT22;6121;49.810;6.418;2022-12-28T13:26:49;10.30;99.90
12115;DHT22;6121;49.810;6.418;2022-12-28T13:29:19;10.20;99.90
12115;DHT22;6121;49.810;6.418;2022-12-28T13:31:45;10.30;99.90
12115;DHT22;6121;49.810;6.418;2022-12-28T13:34:18;10.30;99.90
12115;DHT22;6121;49.810;6.418;2022-12-28T13:36:56;10.30;99.90
12115;DHT22;6121;49.810;6.418;2022-12-28T13:39:24;10.10;99.90
12115;DHT22;6121;49.810;6.418;2022-12-28T13:41:52;10.10;99.90
12115;DHT22;6121;49.810;6.418;2022-12-28T13:44:36;10.00;99.90
12115;DHT22;6121;49.810;6.418;2022-12-28T13:47:10;10.20;99.90
12115;DHT22;6121;49.810;6.418;2022-12-28T13:49:50;10.20;99.90
12115;DHT22;6121;49.810;6.418;2022-12-28T13:52:22;10.10;99.90
12115;DHT22;6121;49.810;6.418;2022-12-28T13:54:52;10.20;99.90
12115;DHT22;6121;49.810;6.418;2022-12-28T13:57:21;10.30;99.90
12115;DHT22;6121;49.810;6.418;2022-12-28T13:59:51;10.30;99.90
12115;DHT22;6121;49.810;6.418;2022-12-28T14:02:19;10.30;99.90
12115;DHT22;6121;49.810;6.418;2022-12-28T14:04:47;10.40;99.90
12115;DHT22;6121;49.810;6.418;2022-12-28T14:07:17;10.30;99.90
12115;DHT22;6121;49.810;6.418;2022-12-28T14:09:43;10.20;99.90
12115;DHT22;6121;49.810;6.418;2022-12-28T14:12:11;10.10;99.90
12115;DHT22;6121;49.810;6.418;2022-12-28T14:14:37;10.20;99.90
12115;DHT22;6121;49.810;6.418;2022-12-28T14:17:04;10.20;99.90
12115;DHT22;6121;49.810;6.418;2022-12-28T14:19:30;10.20;99.90
12115;DHT22;6121;49.810;6.418;2022-12-28T14:21:55;10.20;99.90
12115;DHT22;6121;49.810;6.418;2022-12-28T14:24:21;10.10;99.90
12115;DHT22;6121;49.810;6.418;2022-12-28T14:26:53;10.20;99.90
12115;DHT22;6121;49.810;6.418;2022-12-28T14:29:31;10.20;99.90
12115;DHT22;6121;49.810;6.418;2022-12-28T14:31:58;10.20;99.90
12115;DHT22;6121;49.810;6.418;2022-12-28T14:34:33;10.10;99.90
12115;DHT22;6121;49.810;6.418;2022-12-28T14:36:59;10.20;99.90
12115;DHT22;6121;49.810;6.418;2022-12-28T14:39:32;10.10;99.90
12115;DHT22;6121;49.810;6.418;2022-12-28T14:42:04;10.20;99.90
12115;DHT22;6121;49.810;6.418;2022-12-28T14:44:32;10.10;99.90
12115;DHT22;6121;49.810;6.418;2022-12-28T14:47:00;10.10;99.90
12115;DHT22;6121;49.810;6.418;2022-12-28T14:55:18;10.20;99.90
12115;DHT22;6121;49.810;6.418;2022-12-28T14:57:46;10.20;99.90
12115;DHT22;6121;49.810;6.418;2022-12-28T15:00:25;10.30;99.90
12115;DHT22;6121;49.810;6.418;2022-12-28T15:02:52;10.30;99.90
12115;DHT22;6121;49.810;6.418;2022-12-28T15:08:02;10.40;99.90
12115;DHT22;6121;49.810;6.418;2022-12-28T15:10:28;10.50;99.90
12115;DHT22;6121;49.810;6.418;2022-12-28T15:12:53;10.50;99.90
12115;DHT22;6121;49.810;6.418;2022-12-28T15:15:19;10.40;99.90
12115;DHT22;6121;49.810;6.418;2022-12-28T15:17:46;10.30;99.90
12115;DHT22;6121;49.810;6.418;2022-12-28T15:20:12;10.30;99.90
12115;DHT22;6121;49.810;6.418;2022-12-28T15:22:38;10.30;99.90
12115;DHT22;6121;49.810;6.418;2022-12-28T15:25:05;10.40;99.90
12115;DHT22;6121;49.810;6.418;2022-12-28T15:27:30;10.30;99.90
12115;DHT22;6121;49.810;6.418;2022-12-28T15:29:56;10.30;99.90
12115;DHT22;6121;49.810;6.418;2022-12-28T15:32:22;10.30;99.90
12115;DHT22;6121;49.810;6.418;2022-12-28T15:34:47;10.30;99.90
12115;DHT22;6121;49.810;6.418;2022-12-28T15:37:13;10.40;99.90
12115;DHT22;6121;49.810;6.418;2022-12-28T15:39:39;10.30;99.90
12115;DHT22;6121;49.810;6.418;2022-12-28T15:42:04;10.30;99.90
12115;DHT22;6121;49.810;6.418;2022-12-28T15:44:30;10.20;99.90
12115;DHT22;6121;49.810;6.418;2022-12-28T15:46:55;10.30;99.90
12115;DHT22;6121;49.810;6.418;2022-12-28T15:49:21;10.20;99.90
12115;DHT22;6121;49.810;6.418;2022-12-28T15:51:46;10.10;99.90
12115;DHT22;6121;49.810;6.418;2022-12-28T15:54:12;10.20;99.90
12115;DHT22;6121;49.810;6.418;2022-12-28T15:56:39;10.10;99.90
12115;DHT22;6121;49.810;6.418;2022-12-28T15:59:09;10.10;99.90
12115;DHT22;6121;49.810;6.418;2022-12-28T16:01:36;10.10;99.90
12115;DHT22;6121;49.810;6.418;2022-12-28T16:04:02;10.10;99.90
12115;DHT22;6121;49.810;6.418;2022-12-28T16:06:29;10.10;99.90
12115;DHT22;6121;49.810;6.418;2022-12-28T16:08:56;10.10;99.90
12115;DHT22;6121;49.810;6.418;2022-12-28T16:11:23;10.20;99.90
12115;DHT22;6121;49.810;6.418;2022-12-28T16:13:51;10.20;99.90
12115;DHT22;6121;49.810;6.418;2022-12-28T16:16:17;10.30;99.90
12115;DHT22;6121;49.810;6.418;2022-12-28T16:18:43;10.10;99.90
12115;DHT22;6121;49.810;6.418;2022-12-28T16:21:09;10.20;99.90
12115;DHT22;6121;49.810;6.418;2022-12-28T16:23:37;10.10;99.90
12115;DHT22;6121;49.810;6.418;2022-12-28T16:26:04;10.10;99.90
12115;DHT22;6121;49.810;6.418;2022-12-28T16:28:29;10.20;99.90
12115;DHT22;6121;49.810;6.418;2022-12-28T16:30:56;10.20;99.90
12115;DHT22;6121;49.810;6.418;2022-12-28T16:33:22;10.20;99.90
12115;DHT22;6121;49.810;6.418;2022-12-28T16:35:48;10.20;99.90
12115;DHT22;6121;49.810;6.418;2022-12-28T16:38:15;10.20;99.90
12115;DHT22;6121;49.810;6.418;2022-12-28T16:40:41;10.10;99.90
12115;DHT22;6121;49.810;6.418;2022-12-28T16:43:08;10.00;99.90
12115;DHT22;6121;49.810;6.418;2022-12-28T16:45:38;9.90;99.90
12115;DHT22;6121;49.810;6.418;2022-12-28T16:48:06;10.00;99.90
12115;DHT22;6121;49.810;6.418;2022-12-28T16:50:32;10.20;99.90
12115;DHT22;6121;49.810;6.418;2022-12-28T16:52:58;10.20;99.90
12115;DHT22;6121;49.810;6.418;2022-12-28T16:55:29;10.20;99.90
12115;DHT22;6121;49.810;6.418;2022-12-28T16:57:54;10.30;99.90
12115;DHT22;6121;49.810;6.418;2022-12-28T17:00:20;10.30;99.90
12115;DHT22;6121;49.810;6.418;2022-12-28T17:02:46;10.30;99.90
12115;DHT22;6121;49.810;6.418;2022-12-28T17:05:12;10.30;99.90
12115;DHT22;6121;49.810;6.418;2022-12-28T17:07:37;10.30;99.90
12115;DHT22;6121;49.810;6.418;2022-12-28T17:10:03;10.30;99.90
12115;DHT22;6121;49.810;6.418;2022-12-28T17:12:29;10.20;99.90
12115;DHT22;6121;49.810;6.418;2022-12-28T17:14:55;10.10;99.90
12115;DHT22;6121;49.810;6.418;2022-12-28T17:17:21;10.20;99.90
12115;DHT22;6121;49.810;6.418;2022-12-28T17:19:46;10.20;99.90
12115;DHT22;6121;49.810;6.418;2022-12-28T17:22:12;10.20;99.90
12115;DHT22;6121;49.810;6.418;2022-12-28T17:24:38;10.20;99.90
12115;DHT22;6121;49.810;6.418;2022-12-28T17:27:03;10.20;99.90
12115;DHT22;6121;49.810;6.418;2022-12-28T17:29:29;10.10;99.90